createdAt,value
2018-09-13T00:00:24.058Z,54.77
2018-09-13T00:00:59.588Z,54.59
2018-09-13T00:01:34.781Z,55.28
2018-09-13T00:02:10.108Z,55.20
2018-09-13T00:02:45.398Z,54.82
2018-09-13T00:03:20.754Z,55.37
2018-09-13T00:03:56.204Z,55.30
2018-09-13T00:04:31.433Z,55.36
2018-09-13T00:05:07.445Z,54.96
2018-09-13T00:05:42.917Z,55.22
2018-09-13T00:06:19.142Z,55.31
2018-09-13T00:06:54.563Z,55.11
2018-09-13T00:07:30.420Z,55.32
2018-09-13T00:08:06.282Z,55.12
2018-09-13T00:08:41.091Z,55.10
2018-09-13T00:09:16.745Z,55.20
2018-09-13T00:09:52.014Z,54.97
2018-09-13T00:10:27.693Z,55.61
2018-09-13T00:11:02.948Z,55.27
2018-09-13T00:11:39.350Z,54.91
2018-09-13T00:12:14.662Z,55.42
2018-09-13T00:12:49.904Z,55.31
2018-09-13T00:13:25.188Z,55.67
2018-09-13T00:14:00.454Z,55.39
2018-09-13T00:14:35.666Z,55.80
2018-09-13T00:15:11.057Z,55.27
2018-09-13T00:15:46.290Z,55.33
2018-09-13T00:16:21.717Z,54.99
2018-09-13T00:16:56.918Z,55.18
2018-09-13T00:17:32.163Z,55.33
2018-09-13T00:18:07.381Z,55.90
2018-09-13T00:18:42.759Z,55.63
2018-09-13T00:19:17.884Z,55.70
2018-09-13T00:19:53.110Z,55.37
2018-09-13T00:20:28.293Z,55.76
2018-09-13T00:21:03.556Z,55.43
2018-09-13T00:21:38.746Z,55.61
2018-09-13T00:22:14.270Z,55.27
2018-09-13T00:22:49.532Z,55.86
2018-09-13T00:23:24.723Z,56.07
2018-09-13T00:23:59.962Z,56.27
2018-09-13T00:24:35.145Z,55.71
2018-09-13T00:25:10.405Z,56.08
2018-09-13T00:25:45.709Z,55.81
2018-09-13T00:26:20.959Z,55.96
2018-09-13T00:26:56.178Z,55.87
2018-09-13T00:27:31.399Z,56.08
2018-09-13T00:28:06.794Z,56.33
2018-09-13T00:28:42.170Z,55.86
2018-09-13T00:29:17.418Z,56.41
2018-09-13T00:29:53.514Z,56.37
2018-09-13T00:30:28.726Z,56.42
2018-09-13T00:31:04.016Z,56.18
2018-09-13T00:31:39.287Z,56.23
2018-09-13T00:32:14.604Z,56.44
2018-09-13T00:32:49.846Z,56.43
2018-09-13T00:33:25.071Z,56.50
2018-09-13T00:34:00.297Z,56.64
2018-09-13T00:34:35.520Z,56.66
2018-09-13T00:35:11.346Z,56.54
2018-09-13T00:35:46.717Z,56.44
2018-09-13T00:36:21.984Z,56.51
2018-09-13T00:36:57.230Z,56.43
2018-09-13T00:37:32.425Z,56.52
2018-09-13T00:38:08.070Z,56.41
2018-09-13T00:38:43.874Z,56.32
2018-09-13T00:39:19.139Z,57.08
2018-09-13T00:39:54.379Z,56.84
2018-09-13T00:40:29.570Z,56.70
2018-09-13T00:41:04.847Z,57.23
2018-09-13T00:41:40.313Z,57.01
2018-09-13T00:42:15.703Z,56.54
2018-09-13T00:42:50.930Z,56.54
2018-09-13T00:43:26.122Z,56.28
2018-09-13T00:44:01.473Z,56.91
2018-09-13T00:44:36.693Z,56.40
2018-09-13T00:45:11.973Z,56.71
2018-09-13T00:45:47.260Z,57.20
2018-09-13T00:46:22.519Z,56.59
2018-09-13T00:46:57.718Z,56.77
2018-09-13T00:47:32.938Z,56.67
2018-09-13T00:48:08.509Z,56.55
2018-09-13T00:48:43.885Z,57.11
2018-09-13T00:49:19.136Z,56.99
2018-09-13T00:49:54.371Z,57.38
2018-09-13T00:50:29.583Z,57.30
2018-09-13T00:51:05.155Z,56.83
2018-09-13T00:51:40.443Z,57.27
2018-09-13T00:52:15.837Z,57.21
2018-09-13T00:52:51.073Z,56.97
2018-09-13T00:53:26.297Z,57.54
2018-09-13T00:54:01.691Z,57.05
2018-09-13T00:54:36.901Z,57.38
2018-09-13T00:55:12.189Z,56.95
2018-09-13T00:55:47.646Z,56.81
2018-09-13T00:56:22.904Z,57.04
2018-09-13T00:56:58.096Z,57.50
2018-09-13T00:57:33.293Z,57.26
2018-09-13T00:58:08.498Z,57.14
2018-09-13T00:58:43.837Z,57.40
2018-09-13T00:59:19.057Z,57.64
2018-09-13T00:59:54.276Z,58.09
2018-09-13T01:00:29.544Z,57.69
2018-09-13T01:01:04.766Z,57.41
2018-09-13T01:01:40.076Z,57.59
2018-09-13T01:02:15.718Z,57.83
2018-09-13T01:02:51.375Z,57.79
2018-09-13T01:03:26.574Z,58.29
2018-09-13T01:04:01.782Z,57.78
2018-09-13T01:04:36.993Z,57.67
2018-09-13T01:05:12.330Z,57.93
2018-09-13T01:05:47.604Z,58.22
2018-09-13T01:06:22.861Z,57.55
2018-09-13T01:06:58.066Z,58.16
2018-09-13T01:07:33.291Z,58.27
2018-09-13T01:08:08.512Z,57.93
2018-09-13T01:08:43.835Z,57.83
2018-09-13T01:09:19.145Z,57.63
2018-09-13T01:09:54.384Z,57.93
2018-09-13T01:10:29.603Z,58.21
2018-09-13T01:11:04.866Z,57.92
2018-09-13T01:11:40.544Z,57.60
2018-09-13T01:12:15.959Z,57.87
2018-09-13T01:12:51.280Z,58.06
2018-09-13T01:13:26.509Z,58.23
2018-09-13T01:14:01.754Z,58.17
2018-09-13T01:14:36.942Z,57.80
2018-09-13T01:15:12.395Z,58.23
2018-09-13T01:15:47.718Z,58.38
2018-09-13T01:16:22.985Z,58.28
2018-09-13T01:16:58.183Z,57.80
2018-09-13T01:17:33.790Z,58.22
2018-09-13T01:18:09.026Z,58.27
2018-09-13T01:18:44.974Z,58.04
2018-09-13T01:19:19.693Z,58.21
2018-09-13T01:19:55.139Z,58.38
2018-09-13T01:20:30.474Z,58.80
2018-09-13T01:21:06.275Z,58.10
2018-09-13T01:21:41.621Z,58.13
2018-09-13T01:22:17.397Z,58.35
2018-09-13T01:22:52.656Z,58.34
2018-09-13T01:23:27.861Z,57.75
2018-09-13T01:24:03.056Z,58.44
2018-09-13T01:24:38.243Z,58.10
2018-09-13T01:25:13.631Z,58.44
2018-09-13T01:25:49.082Z,58.10
2018-09-13T01:26:24.370Z,57.98
2018-09-13T01:26:59.591Z,57.89
2018-09-13T01:27:34.835Z,58.32
2018-09-13T01:28:10.037Z,58.49
2018-09-13T01:28:45.546Z,58.54
2018-09-13T01:29:20.967Z,58.41
2018-09-13T01:29:56.797Z,58.42
2018-09-13T01:30:31.994Z,58.70
2018-09-13T01:31:07.262Z,58.56
2018-09-13T01:31:42.655Z,58.69
2018-09-13T01:32:17.874Z,58.42
2018-09-13T01:32:52.618Z,58.49
2018-09-13T01:33:27.814Z,58.70
2018-09-13T01:34:03.018Z,58.41
2018-09-13T01:34:38.558Z,58.55
2018-09-13T01:35:13.885Z,58.88
2018-09-13T01:35:49.334Z,58.93
2018-09-13T01:36:24.534Z,58.39
2018-09-13T01:36:59.805Z,59.21
2018-09-13T01:37:34.979Z,58.21
2018-09-13T01:38:10.363Z,58.54
2018-09-13T01:38:46.006Z,58.96
2018-09-13T01:39:21.375Z,58.14
2018-09-13T01:39:56.562Z,58.89
2018-09-13T01:40:31.756Z,58.38
2018-09-13T01:41:07.028Z,59.22
2018-09-13T01:41:42.519Z,58.88
2018-09-13T01:42:18.275Z,58.75
2018-09-13T01:42:53.494Z,58.41
2018-09-13T01:43:28.710Z,59.32
2018-09-13T01:44:03.962Z,59.15
2018-09-13T01:44:39.176Z,58.38
2018-09-13T01:45:14.413Z,59.26
2018-09-13T01:45:49.723Z,58.70
2018-09-13T01:46:24.912Z,59.14
2018-09-13T01:47:00.120Z,58.26
2018-09-13T01:47:35.319Z,59.12
2018-09-13T01:48:10.688Z,59.19
2018-09-13T01:48:46.066Z,58.42
2018-09-13T01:49:21.341Z,58.85
2018-09-13T01:49:56.546Z,58.50
2018-09-13T01:50:31.763Z,58.88
2018-09-13T01:51:07.050Z,58.44
2018-09-13T01:51:42.362Z,58.90
2018-09-13T01:52:17.811Z,58.74
2018-09-13T01:52:53.002Z,58.46
2018-09-13T01:53:28.206Z,59.24
2018-09-13T01:54:03.423Z,58.68
2018-09-13T01:54:38.966Z,58.92
2018-09-13T01:55:14.310Z,59.39
2018-09-13T01:55:49.684Z,59.67
2018-09-13T01:56:24.880Z,59.43
2018-09-13T01:57:00.074Z,59.20
2018-09-13T01:57:35.355Z,59.29
2018-09-13T01:58:10.697Z,59.44
2018-09-13T01:58:46.034Z,59.14
2018-09-13T01:59:21.265Z,59.38
2018-09-13T01:59:56.840Z,59.78
2018-09-13T02:00:32.388Z,59.36
2018-09-13T02:01:07.647Z,59.07
2018-09-13T02:01:42.921Z,59.21
2018-09-13T02:02:18.309Z,59.19
2018-09-13T02:02:53.536Z,59.46
2018-09-13T02:03:28.731Z,59.97
2018-09-13T02:04:04.182Z,59.79
2018-09-13T02:04:39.464Z,59.24
2018-09-13T02:05:14.732Z,59.84
2018-09-13T02:05:50.069Z,59.53
2018-09-13T02:06:25.238Z,59.36
2018-09-13T02:07:00.447Z,59.91
2018-09-13T02:07:35.674Z,59.32
2018-09-13T02:08:10.905Z,59.10
2018-09-13T02:08:46.426Z,60.05
2018-09-13T02:09:21.630Z,60.11
2018-09-13T02:09:56.822Z,59.43
2018-09-13T02:10:32.018Z,59.67
2018-09-13T02:11:07.282Z,59.03
2018-09-13T02:11:42.607Z,59.92
2018-09-13T02:12:17.961Z,60.07
2018-09-13T02:12:53.161Z,59.73
2018-09-13T02:13:28.373Z,59.63
2018-09-13T02:14:03.560Z,59.80
2018-09-13T02:14:38.786Z,59.85
2018-09-13T02:15:14.264Z,59.74
2018-09-13T02:15:49.788Z,59.96
2018-09-13T02:16:24.999Z,59.01
2018-09-13T02:17:00.205Z,59.43
2018-09-13T02:17:35.399Z,60.26
2018-09-13T02:18:10.171Z,59.48
2018-09-13T02:18:45.575Z,59.63
2018-09-13T02:19:20.801Z,59.29
2018-09-13T02:19:56.032Z,59.52
2018-09-13T02:20:31.216Z,59.85
2018-09-13T02:21:06.473Z,59.97
2018-09-13T02:21:41.772Z,59.99
2018-09-13T02:22:17.039Z,59.89
2018-09-13T02:22:52.818Z,59.73
2018-09-13T02:23:28.268Z,59.96
2018-09-13T02:24:03.505Z,60.34
2018-09-13T02:24:38.729Z,60.32
2018-09-13T02:25:14.349Z,59.47
2018-09-13T02:25:49.634Z,59.73
2018-09-13T02:26:24.978Z,60.02
2018-09-13T02:27:00.206Z,59.30
2018-09-13T02:27:35.395Z,60.02
2018-09-13T02:28:10.764Z,60.10
2018-09-13T02:28:46.125Z,59.54
2018-09-13T02:29:21.364Z,59.31
2018-09-13T02:29:56.661Z,59.15
2018-09-13T02:30:31.842Z,59.26
2018-09-13T02:31:07.039Z,59.07
2018-09-13T02:31:42.840Z,60.09
2018-09-13T02:32:18.180Z,59.88
2018-09-13T02:32:53.663Z,60.28
2018-09-13T02:33:28.857Z,60.01
2018-09-13T02:34:04.143Z,59.94
2018-09-13T02:34:39.336Z,59.84
2018-09-13T02:35:14.647Z,59.51
2018-09-13T02:35:50.092Z,59.95
2018-09-13T02:36:25.270Z,59.66
2018-09-13T02:37:00.483Z,59.35
2018-09-13T02:37:35.729Z,59.27
2018-09-13T02:38:11.060Z,59.72
2018-09-13T02:38:46.326Z,60.31
2018-09-13T02:39:21.569Z,59.02
2018-09-13T02:39:56.774Z,59.11
2018-09-13T02:40:32.074Z,59.54
2018-09-13T02:41:07.309Z,58.76
2018-09-13T02:41:42.943Z,59.23
2018-09-13T02:42:18.374Z,58.86
2018-09-13T02:42:53.620Z,59.53
2018-09-13T02:43:28.872Z,59.95
2018-09-13T02:44:04.302Z,59.24
2018-09-13T02:44:39.503Z,59.14
2018-09-13T02:45:14.846Z,59.17
2018-09-13T02:45:50.216Z,59.38
2018-09-13T02:46:25.463Z,59.41
2018-09-13T02:47:00.830Z,59.10
2018-09-13T02:47:36.097Z,59.93
2018-09-13T02:48:11.415Z,59.50
2018-09-13T02:48:47.134Z,59.57
2018-09-13T02:49:22.551Z,59.98
2018-09-13T02:49:57.911Z,60.01
2018-09-13T02:50:33.113Z,59.76
2018-09-13T02:51:08.496Z,59.53
2018-09-13T02:51:43.843Z,59.98
2018-09-13T02:52:19.157Z,59.63
2018-09-13T02:52:54.418Z,59.23
2018-09-13T02:53:29.619Z,59.21
2018-09-13T02:54:04.820Z,59.36
2018-09-13T02:54:40.071Z,59.93
2018-09-13T02:55:15.429Z,59.38
2018-09-13T02:55:50.936Z,59.98
2018-09-13T02:56:26.146Z,59.76
2018-09-13T02:57:01.333Z,59.54
2018-09-13T02:57:36.557Z,59.39
2018-09-13T02:58:11.896Z,60.01
2018-09-13T02:58:47.191Z,59.90
2018-09-13T02:59:22.622Z,59.82
2018-09-13T02:59:57.872Z,59.46
2018-09-13T03:00:33.104Z,59.43
2018-09-13T03:01:08.303Z,59.52
2018-09-13T03:01:43.708Z,60.01
2018-09-13T03:02:19.031Z,59.32
2018-09-13T03:02:54.608Z,59.32
2018-09-13T03:03:29.296Z,60.05
2018-09-13T03:04:04.638Z,59.99
2018-09-13T03:04:40.009Z,59.55
2018-09-13T03:05:15.328Z,60.06
2018-09-13T03:05:50.590Z,59.53
2018-09-13T03:06:25.772Z,59.99
2018-09-13T03:07:02.393Z,60.30
2018-09-13T03:07:37.613Z,60.16
2018-09-13T03:08:12.870Z,59.67
2018-09-13T03:08:48.558Z,59.99
2018-09-13T03:09:23.745Z,60.02
2018-09-13T03:09:58.931Z,59.83
2018-09-13T03:10:40.447Z,59.95
2018-09-13T03:11:15.222Z,59.75
2018-09-13T03:11:50.521Z,59.86
2018-09-13T03:12:25.755Z,59.97
2018-09-13T03:13:01.293Z,59.58
2018-09-13T03:13:36.495Z,60.08
2018-09-13T03:14:12.039Z,60.27
2018-09-13T03:14:47.362Z,60.46
2018-09-13T03:15:22.735Z,60.38
2018-09-13T03:15:57.954Z,59.59
2018-09-13T03:16:33.186Z,59.80
2018-09-13T03:17:08.819Z,59.74
2018-09-13T03:17:44.211Z,60.09
2018-09-13T03:18:19.564Z,59.72
2018-09-13T03:18:54.769Z,60.27
2018-09-13T03:19:30.002Z,59.91
2018-09-13T03:20:05.226Z,60.18
2018-09-13T03:20:40.751Z,60.27
2018-09-13T03:21:16.082Z,60.11
2018-09-13T03:21:51.697Z,60.55
2018-09-13T03:22:26.999Z,60.39
2018-09-13T03:23:02.350Z,60.32
2018-09-13T03:23:37.627Z,59.93
2018-09-13T03:24:13.005Z,60.10
2018-09-13T03:24:48.373Z,60.26
2018-09-13T03:25:23.589Z,59.99
2018-09-13T03:25:58.782Z,60.12
2018-09-13T03:26:34.459Z,59.92
2018-09-13T03:27:09.661Z,60.33
2018-09-13T03:27:45.126Z,60.31
2018-09-13T03:28:20.502Z,59.49
2018-09-13T03:28:55.720Z,59.54
2018-09-13T03:29:30.941Z,59.83
2018-09-13T03:30:06.154Z,60.06
2018-09-13T03:30:41.572Z,60.07
2018-09-13T03:31:17.039Z,60.17
2018-09-13T03:31:52.266Z,59.94
2018-09-13T03:32:27.478Z,60.25
2018-09-13T03:33:02.927Z,60.62
2018-09-13T03:33:38.458Z,59.48
2018-09-13T03:34:13.948Z,60.74
2018-09-13T03:34:49.315Z,60.51
2018-09-13T03:35:24.538Z,60.17
2018-09-13T03:35:59.748Z,59.95
2018-09-13T03:36:34.926Z,60.45
2018-09-13T03:37:10.164Z,60.38
2018-09-13T03:37:45.458Z,59.95
2018-09-13T03:38:20.727Z,59.87
2018-09-13T03:38:55.942Z,60.04
2018-09-13T03:39:31.271Z,60.03
2018-09-13T03:40:06.516Z,60.30
2018-09-13T03:40:41.818Z,60.14
2018-09-13T03:41:17.099Z,60.36
2018-09-13T03:41:52.395Z,60.68
2018-09-13T03:42:27.796Z,60.22
2018-09-13T03:43:03.015Z,60.09
2018-09-13T03:43:38.760Z,59.90
2018-09-13T03:44:14.100Z,60.09
2018-09-13T03:44:49.373Z,60.36
2018-09-13T03:45:24.675Z,59.91
2018-09-13T03:45:59.864Z,60.49
2018-09-13T03:46:41.984Z,59.96
2018-09-13T03:47:17.312Z,60.06
2018-09-13T03:47:52.557Z,60.50
2018-09-13T03:48:28.282Z,60.99
2018-09-13T03:49:03.488Z,60.16
2018-09-13T03:49:38.718Z,60.36
2018-09-13T03:50:14.239Z,60.39
2018-09-13T03:50:49.809Z,60.44
2018-09-13T03:51:25.110Z,60.45
2018-09-13T03:52:00.575Z,60.82
2018-09-13T03:52:35.740Z,60.84
2018-09-13T03:53:10.980Z,60.32
2018-09-13T03:53:46.311Z,60.50
2018-09-13T03:54:21.685Z,60.88
2018-09-13T03:54:56.902Z,61.15
2018-09-13T03:55:32.122Z,60.78
2018-09-13T03:56:07.469Z,60.61
2018-09-13T03:56:43.044Z,60.91
2018-09-13T03:57:18.577Z,60.66
2018-09-13T03:57:53.823Z,60.44
2018-09-13T03:58:28.982Z,60.38
2018-09-13T03:59:04.222Z,60.61
2018-09-13T03:59:39.447Z,61.16
2018-09-13T04:00:15.211Z,60.34
2018-09-13T04:00:50.640Z,60.77
2018-09-13T04:01:25.807Z,60.27
2018-09-13T04:02:00.985Z,60.45
2018-09-13T04:02:36.155Z,60.50
2018-09-13T04:03:12.355Z,60.39
2018-09-13T04:03:47.874Z,60.33
2018-09-13T04:04:23.278Z,60.88
2018-09-13T04:04:58.538Z,60.38
2018-09-13T04:05:33.826Z,60.52
2018-09-13T04:06:09.055Z,60.49
2018-09-13T04:06:44.335Z,60.27
2018-09-13T04:07:19.642Z,60.93
2018-09-13T04:07:55.213Z,60.66
2018-09-13T04:08:30.522Z,60.62
2018-09-13T04:09:08.831Z,60.00
2018-09-13T04:09:44.244Z,60.15
2018-09-13T04:10:19.560Z,60.30
2018-09-13T04:10:55.079Z,60.02
2018-09-13T04:11:30.276Z,60.32
2018-09-13T04:12:05.678Z,60.69
2018-09-13T04:12:40.926Z,60.57
2018-09-13T04:13:16.336Z,60.55
2018-09-13T04:13:51.595Z,60.49
2018-09-13T04:14:27.091Z,60.09
2018-09-13T04:15:02.274Z,60.34
2018-09-13T04:15:37.461Z,60.37
2018-09-13T04:16:12.695Z,60.75
2018-09-13T04:16:47.510Z,60.60
2018-09-13T04:17:22.710Z,60.46
2018-09-13T04:17:57.914Z,60.67
2018-09-13T04:18:33.112Z,59.89
2018-09-13T04:19:08.274Z,60.25
2018-09-13T04:19:44.422Z,60.59
2018-09-13T04:20:19.689Z,59.83
2018-09-13T04:20:54.869Z,60.25
2018-09-13T04:21:30.386Z,60.25
2018-09-13T04:22:05.951Z,60.01
2018-09-13T04:22:41.640Z,59.79
2018-09-13T04:23:17.076Z,60.62
2018-09-13T04:23:52.293Z,60.19
2018-09-13T04:24:27.687Z,60.70
2018-09-13T04:25:02.923Z,60.63
2018-09-13T04:25:38.203Z,60.57
2018-09-13T04:26:12.958Z,60.06
2018-09-13T04:26:47.743Z,60.37
2018-09-13T04:27:22.641Z,60.19
2018-09-13T04:27:57.891Z,59.35
2018-09-13T04:28:33.116Z,59.30
2018-09-13T04:29:08.287Z,60.68
2018-09-13T04:29:43.827Z,59.61
2018-09-13T04:30:19.277Z,59.92
2018-09-13T04:30:54.474Z,59.91
2018-09-13T04:31:29.657Z,59.80
2018-09-13T04:32:05.110Z,59.35
2018-09-13T04:32:40.318Z,59.70
2018-09-13T04:33:15.661Z,59.81
2018-09-13T04:33:50.937Z,60.00
2018-09-13T04:34:26.120Z,60.15
2018-09-13T04:35:01.309Z,60.64
2018-09-13T04:35:36.539Z,59.79
2018-09-13T04:36:12.377Z,60.65
2018-09-13T04:36:47.849Z,60.61
2018-09-13T04:37:23.104Z,60.02
2018-09-13T04:37:58.310Z,60.32
2018-09-13T04:38:33.552Z,60.19
2018-09-13T04:39:09.846Z,59.76
2018-09-13T04:39:45.260Z,60.42
2018-09-13T04:40:20.857Z,60.18
2018-09-13T04:40:56.039Z,60.75
2018-09-13T04:41:31.606Z,60.14
2018-09-13T04:42:06.816Z,59.89
2018-09-13T04:42:42.099Z,60.69
2018-09-13T04:43:17.510Z,60.42
2018-09-13T04:43:52.729Z,60.15
2018-09-13T04:44:27.908Z,59.91
2018-09-13T04:45:03.157Z,60.01
2018-09-13T04:45:38.304Z,60.16
2018-09-13T04:46:13.626Z,59.70
2018-09-13T04:46:49.013Z,59.65
2018-09-13T04:47:24.366Z,59.39
2018-09-13T04:47:59.554Z,60.80
2018-09-13T04:48:34.786Z,61.08
2018-09-13T04:49:09.505Z,61.11
2018-09-13T04:49:44.931Z,60.54
2018-09-13T04:50:20.202Z,61.10
2018-09-13T04:50:55.421Z,60.41
2018-09-13T04:51:30.618Z,60.42
2018-09-13T04:52:06.157Z,60.35
2018-09-13T04:52:41.494Z,60.69
2018-09-13T04:53:16.774Z,60.30
2018-09-13T04:53:52.002Z,60.28
2018-09-13T04:54:27.154Z,59.84
2018-09-13T04:55:02.320Z,59.66
2018-09-13T04:55:37.744Z,60.76
2018-09-13T04:56:13.249Z,60.91
2018-09-13T04:56:48.598Z,60.19
2018-09-13T04:57:23.854Z,60.43
2018-09-13T04:57:59.124Z,60.20
2018-09-13T04:58:34.396Z,60.35
2018-09-13T04:59:09.618Z,59.88
2018-09-13T04:59:45.003Z,60.27
2018-09-13T05:00:20.340Z,59.63
2018-09-13T05:00:55.701Z,60.54
2018-09-13T05:01:31.057Z,59.71
2018-09-13T05:02:06.295Z,60.00
2018-09-13T05:02:42.122Z,59.85
2018-09-13T05:03:17.520Z,59.64
2018-09-13T05:03:52.774Z,59.76
2018-09-13T05:04:27.960Z,60.53
2018-09-13T05:05:03.305Z,60.17
2018-09-13T05:05:37.978Z,60.46
2018-09-13T05:06:13.608Z,60.52
2018-09-13T05:06:48.831Z,60.05
2018-09-13T05:07:24.142Z,60.30
2018-09-13T05:07:59.306Z,59.77
2018-09-13T05:08:34.501Z,60.71
2018-09-13T05:09:12.366Z,59.42
2018-09-13T05:09:47.682Z,60.34
2018-09-13T05:10:22.903Z,60.25
2018-09-13T05:10:58.078Z,60.09
2018-09-13T05:11:33.263Z,60.38
2018-09-13T05:12:09.032Z,60.00
2018-09-13T05:13:47.492Z,59.91
2018-09-13T05:14:22.726Z,60.30
2018-09-13T05:14:57.889Z,60.38
2018-09-13T05:15:33.065Z,60.00
2018-09-13T05:16:08.222Z,59.99
2018-09-13T05:16:43.603Z,60.24
2018-09-13T05:17:19.018Z,60.20
2018-09-13T05:17:54.214Z,60.04
2018-09-13T05:18:29.511Z,59.96
2018-09-13T05:19:05.056Z,60.73
2018-09-13T05:19:40.330Z,59.77
2018-09-13T05:20:15.601Z,59.98
2018-09-13T05:20:50.862Z,59.81
2018-09-13T05:21:26.066Z,60.49
2018-09-13T05:22:01.234Z,60.08
2018-09-13T05:22:36.418Z,59.76
2018-09-13T05:23:11.843Z,60.03
2018-09-13T05:23:47.235Z,60.02
2018-09-13T05:24:22.518Z,60.24
2018-09-13T05:24:57.362Z,59.71
2018-09-13T05:25:32.559Z,59.75
2018-09-13T05:26:07.786Z,59.57
2018-09-13T05:26:43.322Z,60.07
2018-09-13T05:27:18.646Z,60.05
2018-09-13T05:27:53.813Z,59.88
2018-09-13T05:28:29.002Z,59.54
2018-09-13T05:29:04.573Z,59.60
2018-09-13T05:29:39.842Z,59.88
2018-09-13T05:30:15.282Z,59.48
2018-09-13T05:30:50.810Z,59.34
2018-09-13T05:31:26.059Z,60.31
2018-09-13T05:32:01.248Z,60.10
2018-09-13T05:32:36.476Z,59.91
2018-09-13T05:33:11.687Z,59.78
2018-09-13T05:33:46.984Z,60.10
2018-09-13T05:34:22.206Z,59.73
2018-09-13T05:34:57.368Z,60.90
2018-09-13T05:35:32.534Z,60.41
2018-09-13T05:36:07.736Z,60.05
2018-09-13T05:36:43.093Z,60.34
2018-09-13T05:37:18.348Z,59.82
2018-09-13T05:37:53.565Z,60.36
2018-09-13T05:38:28.785Z,60.14
2018-09-13T05:39:05.113Z,60.45
2018-09-13T05:39:40.346Z,60.65
2018-09-13T05:40:15.713Z,59.89
2018-09-13T05:40:50.950Z,60.32
2018-09-13T05:41:26.186Z,60.31
2018-09-13T05:42:01.369Z,59.68
2018-09-13T05:42:36.661Z,59.81
2018-09-13T05:43:12.008Z,59.32
2018-09-13T05:43:47.510Z,60.02
2018-09-13T05:44:22.724Z,59.94
2018-09-13T05:44:57.917Z,59.55
2018-09-13T05:45:33.143Z,59.65
2018-09-13T05:46:08.344Z,59.35
2018-09-13T05:46:43.664Z,59.52
2018-09-13T05:47:19.105Z,59.27
2018-09-13T05:47:54.314Z,59.08
2018-09-13T05:48:29.725Z,59.76
2018-09-13T05:49:05.023Z,59.38
2018-09-13T05:49:40.329Z,59.35
2018-09-13T05:50:15.624Z,59.93
2018-09-13T05:50:50.887Z,59.35
2018-09-13T05:51:26.115Z,58.87
2018-09-13T05:52:01.640Z,59.21
2018-09-13T05:52:36.855Z,59.39
2018-09-13T05:53:12.564Z,59.66
2018-09-13T05:53:47.833Z,59.57
2018-09-13T05:54:23.038Z,59.15
2018-09-13T05:54:58.219Z,60.02
2018-09-13T05:55:33.386Z,60.02
2018-09-13T05:56:08.585Z,59.90
2018-09-13T05:56:43.844Z,59.70
2018-09-13T05:57:19.173Z,59.72
2018-09-13T05:57:54.410Z,59.31
2018-09-13T05:58:29.604Z,59.57
2018-09-13T05:59:04.785Z,59.22
2018-09-13T05:59:39.990Z,60.15
2018-09-13T06:00:15.320Z,59.14
2018-09-13T06:00:50.841Z,59.58
2018-09-13T06:01:26.353Z,59.60
2018-09-13T06:02:01.673Z,59.02
2018-09-13T06:02:36.858Z,59.95
2018-09-13T06:03:12.248Z,59.46
2018-09-13T06:03:47.518Z,59.64
2018-09-13T06:04:22.746Z,59.28
2018-09-13T06:04:58.130Z,59.43
2018-09-13T06:05:33.281Z,59.62
2018-09-13T06:06:08.450Z,59.56
2018-09-13T06:06:43.838Z,59.59
2018-09-13T06:07:19.194Z,59.79
2018-09-13T06:07:54.500Z,59.36
2018-09-13T06:08:29.906Z,58.60
2018-09-13T06:09:06.803Z,59.73
2018-09-13T06:09:42.234Z,58.91
2018-09-13T06:10:17.693Z,59.47
2018-09-13T06:10:52.914Z,59.37
2018-09-13T06:11:28.142Z,59.14
2018-09-13T06:12:03.463Z,58.65
2018-09-13T06:12:38.636Z,58.74
2018-09-13T06:13:14.191Z,59.37
2018-09-13T06:13:49.897Z,58.81
2018-09-13T06:14:25.086Z,58.95
2018-09-13T06:15:00.325Z,58.75
2018-09-13T06:15:35.506Z,58.77
2018-09-13T06:16:11.194Z,58.18
2018-09-13T06:16:47.035Z,58.64
2018-09-13T06:17:22.355Z,59.14
2018-09-13T06:17:57.522Z,58.37
2018-09-13T06:18:33.050Z,58.76
2018-09-13T06:19:08.263Z,58.91
2018-09-13T06:19:43.684Z,58.92
2018-09-13T06:20:19.451Z,58.94
2018-09-13T06:20:54.726Z,58.73
2018-09-13T06:21:30.517Z,58.33
2018-09-13T06:22:06.099Z,58.77
2018-09-13T06:22:41.539Z,59.59
2018-09-13T06:23:16.834Z,58.33
2018-09-13T06:23:52.088Z,58.75
2018-09-13T06:24:27.269Z,58.74
2018-09-13T06:25:02.499Z,58.54
2018-09-13T06:25:37.666Z,59.20
2018-09-13T06:26:13.123Z,58.42
2018-09-13T06:26:48.704Z,58.27
2018-09-13T06:27:23.982Z,58.01
2018-09-13T06:27:59.229Z,58.33
2018-09-13T06:28:34.519Z,58.78
2018-09-13T06:29:09.259Z,58.65
2018-09-13T06:29:44.873Z,58.49
2018-09-13T06:30:20.352Z,58.46
2018-09-13T06:30:55.549Z,58.15
2018-09-13T06:31:30.746Z,58.57
2018-09-13T06:32:05.963Z,58.85
2018-09-13T06:32:41.358Z,57.72
2018-09-13T06:33:16.782Z,58.50
2018-09-13T06:33:52.161Z,58.63
2018-09-13T06:34:27.967Z,58.38
2018-09-13T06:35:03.563Z,57.85
2018-09-13T06:35:38.987Z,57.51
2018-09-13T06:36:14.323Z,57.88
2018-09-13T06:36:49.830Z,58.20
2018-09-13T06:37:25.054Z,58.23
2018-09-13T06:38:00.278Z,57.88
2018-09-13T06:38:35.458Z,57.49
2018-09-13T06:39:12.090Z,57.96
2018-09-13T06:39:47.403Z,58.38
2018-09-13T06:40:22.970Z,58.27
2018-09-13T06:40:58.175Z,57.73
2018-09-13T06:41:33.363Z,57.57
2018-09-13T06:42:08.587Z,58.19
2018-09-13T06:42:43.854Z,58.20
2018-09-13T06:43:19.102Z,57.89
2018-09-13T06:43:54.302Z,57.92
2018-09-13T06:44:29.512Z,58.13
2018-09-13T06:45:05.190Z,57.78
2018-09-13T06:45:40.412Z,58.00
2018-09-13T06:46:15.677Z,57.25
2018-09-13T06:46:50.976Z,57.16
2018-09-13T06:47:26.184Z,57.92
2018-09-13T06:48:01.355Z,57.67
2018-09-13T06:48:36.606Z,57.25
2018-09-13T06:49:12.365Z,56.53
2018-09-13T06:49:47.999Z,57.45
2018-09-13T06:50:23.277Z,57.21
2018-09-13T06:50:58.532Z,57.20
2018-09-13T06:51:33.748Z,57.18
2018-09-13T06:52:08.934Z,56.73
2018-09-13T06:52:44.530Z,56.90
2018-09-13T06:53:19.910Z,56.52
2018-09-13T06:53:55.106Z,55.97
2018-09-13T06:54:30.408Z,56.23
2018-09-13T06:55:05.914Z,56.59
2018-09-13T06:55:40.669Z,56.74
2018-09-13T06:56:16.056Z,56.73
2018-09-13T06:56:51.666Z,56.73
2018-09-13T06:57:26.858Z,56.31
2018-09-13T06:58:02.136Z,56.35
2018-09-13T06:58:37.730Z,57.22
2018-09-13T06:59:13.176Z,56.72
2018-09-13T06:59:47.937Z,55.88
2018-09-13T07:00:23.311Z,56.57
2018-09-13T07:00:58.572Z,55.94
2018-09-13T07:01:33.758Z,56.69
2018-09-13T07:02:08.936Z,56.58
2018-09-13T07:02:44.305Z,56.66
2018-09-13T07:03:19.610Z,55.71
2018-09-13T07:03:54.802Z,56.10
2018-09-13T07:04:29.988Z,56.00
2018-09-13T07:05:05.505Z,56.08
2018-09-13T07:05:40.753Z,56.11
2018-09-13T07:06:16.218Z,56.17
2018-09-13T07:06:51.563Z,56.16
2018-09-13T07:07:26.773Z,55.95
2018-09-13T07:08:01.977Z,55.90
2018-09-13T07:08:37.131Z,55.86
2018-09-13T07:09:14.485Z,54.89
2018-09-13T07:09:49.862Z,55.31
2018-09-13T07:10:25.051Z,55.65
2018-09-13T07:11:00.238Z,55.49
2018-09-13T07:11:35.463Z,55.44
2018-09-13T07:12:11.688Z,55.31
2018-09-13T07:12:47.003Z,55.32
2018-09-13T07:13:22.250Z,55.17
2018-09-13T07:13:57.434Z,54.95
2018-09-13T07:14:32.692Z,55.27
2018-09-13T07:15:07.876Z,55.47
2018-09-13T07:15:43.114Z,55.42
2018-09-13T07:16:18.387Z,55.12
2018-09-13T07:16:53.636Z,55.58
2018-09-13T07:17:28.830Z,55.86
2018-09-13T07:18:04.078Z,54.91
2018-09-13T07:18:39.291Z,55.61
2018-09-13T07:19:14.696Z,55.51
2018-09-13T07:19:50.016Z,55.59
2018-09-13T07:20:25.286Z,56.28
2018-09-13T07:21:00.449Z,56.26
2018-09-13T07:21:35.819Z,55.90
2018-09-13T07:22:11.359Z,55.26
2018-09-13T07:22:47.431Z,55.26
2018-09-13T07:23:22.804Z,55.56
2018-09-13T07:23:58.016Z,55.35
2018-09-13T07:24:32.743Z,55.41
2018-09-13T07:25:08.127Z,55.26
2018-09-13T07:25:43.445Z,55.74
2018-09-13T07:26:19.000Z,55.72
2018-09-13T07:26:54.194Z,55.22
2018-09-13T07:27:29.426Z,54.70
2018-09-13T07:28:04.859Z,54.77
2018-09-13T07:28:40.074Z,54.74
2018-09-13T07:29:15.387Z,54.79
2018-09-13T07:29:50.717Z,54.95
2018-09-13T07:30:26.446Z,54.76
2018-09-13T07:31:02.307Z,54.81
2018-09-13T07:31:37.685Z,54.49
2018-09-13T07:32:13.173Z,54.24
2018-09-13T07:32:48.416Z,54.30
2018-09-13T07:33:23.681Z,54.71
2018-09-13T07:33:58.818Z,54.79
2018-09-13T07:34:34.030Z,54.03
2018-09-13T07:35:09.224Z,53.89
2018-09-13T07:35:44.511Z,53.76
2018-09-13T07:36:19.744Z,54.18